createdAt,value
2018-05-16T00:00:26.793Z,81.30
2018-05-16T00:02:54.281Z,81.20
2018-05-16T00:05:22.522Z,81.00
2018-05-16T00:07:50.044Z,81.00
2018-05-16T00:10:18.309Z,80.20
2018-05-16T00:12:46.613Z,80.30
2018-05-16T00:15:14.119Z,80.30
2018-05-16T00:17:41.632Z,80.30
2018-05-16T00:20:09.156Z,80.20
2018-05-16T00:22:37.447Z,79.50
2018-05-16T00:25:05.724Z,78.30
2018-05-16T00:27:33.996Z,77.30
2018-05-16T00:30:02.365Z,77.10
2018-05-16T00:32:30.873Z,77.20
2018-05-16T00:34:58.412Z,77.20
2018-05-16T00:37:26.674Z,78.50
2018-05-16T00:39:54.192Z,78.40
2018-05-16T00:42:21.703Z,79.30
2018-05-16T00:44:49.981Z,79.00
2018-05-16T00:47:18.285Z,79.00
2018-05-16T00:49:45.771Z,78.90
2018-05-16T00:52:13.293Z,79.10
2018-05-16T00:54:40.799Z,79.30
2018-05-16T00:57:08.305Z,79.80
2018-05-16T00:59:35.812Z,80.30
2018-05-16T01:02:03.405Z,81.30
2018-05-16T01:04:31.737Z,81.10
2018-05-16T01:06:59.239Z,81.10
2018-05-16T01:09:27.531Z,79.50
2018-05-16T01:11:55.036Z,79.60
2018-05-16T01:14:22.641Z,78.70
2018-05-16T01:16:50.907Z,78.20
2018-05-16T01:19:19.180Z,78.40
2018-05-16T01:21:47.439Z,78.50
2018-05-16T01:24:15.715Z,78.60
2018-05-16T01:26:43.243Z,78.60
2018-05-16T01:29:10.736Z,78.60
2018-05-16T01:31:38.292Z,78.80
2018-05-16T01:34:05.785Z,79.80
2018-05-16T01:36:33.288Z,80.30
2018-05-16T01:39:00.786Z,81.00
2018-05-16T01:41:29.033Z,82.60
2018-05-16T01:43:56.547Z,82.50
2018-05-16T01:46:24.071Z,83.60
2018-05-16T01:49:04.254Z,86.70
2018-05-16T01:51:31.787Z,86.80
2018-05-16T01:54:00.051Z,90.90
2018-05-16T01:56:28.317Z,91.70
2018-05-16T01:58:55.891Z,91.70
2018-05-16T02:01:24.151Z,92.60
2018-05-16T02:03:51.651Z,92.60
2018-05-16T02:06:19.147Z,93.70
2018-05-16T02:08:46.645Z,94.50
2018-05-16T02:11:14.928Z,95.40
2018-05-16T02:13:42.433Z,95.40
2018-05-16T02:16:10.035Z,95.60
2018-05-16T02:18:38.301Z,95.40
2018-05-16T02:21:06.572Z,95.80
2018-05-16T02:23:34.139Z,95.80
2018-05-16T02:26:02.427Z,96.20
2018-05-16T02:28:30.711Z,96.40
2018-05-16T02:30:58.263Z,96.40
2018-05-16T02:33:26.528Z,96.10
2018-05-16T02:35:54.811Z,95.70
2018-05-16T02:38:23.072Z,95.80
2018-05-16T02:40:50.614Z,95.80
2018-05-16T02:43:18.364Z,96.00
2018-05-16T02:45:45.916Z,95.80
2018-05-16T02:48:13.352Z,95.90
2018-05-16T02:50:40.888Z,96.30
2018-05-16T02:53:09.165Z,96.30
2018-05-16T02:55:37.439Z,96.50
2018-05-16T02:58:04.945Z,96.50
2018-05-16T03:00:32.482Z,96.50
2018-05-16T03:02:59.997Z,96.20
2018-05-16T03:05:28.394Z,96.60
2018-05-16T03:07:55.895Z,96.20
2018-05-16T03:10:23.497Z,96.20
2018-05-16T03:12:51.773Z,96.30
2018-05-16T03:15:20.016Z,96.50
2018-05-16T03:17:47.604Z,96.50
2018-05-16T03:20:15.903Z,96.50
2018-05-16T03:22:43.458Z,96.40
2018-05-16T03:25:10.968Z,96.30
2018-05-16T03:27:38.464Z,96.20
2018-05-16T03:30:06.016Z,96.20
2018-05-16T03:32:34.294Z,96.30
2018-05-16T03:35:02.572Z,96.40
2018-05-16T03:37:30.842Z,96.60
2018-05-16T03:39:59.476Z,96.60
2018-05-16T03:42:27.044Z,96.60
2018-05-16T03:44:54.550Z,96.70
2018-05-16T03:47:22.828Z,96.70
2018-05-16T03:49:50.333Z,96.70
2018-05-16T03:52:18.158Z,96.50
2018-05-16T03:54:45.650Z,96.60
2018-05-16T03:57:25.143Z,96.70
2018-05-16T04:00:05.309Z,96.70
2018-05-16T04:02:45.348Z,96.70
2018-05-16T04:05:13.630Z,96.80
2018-05-16T04:07:42.005Z,97.00
2018-05-16T04:10:10.331Z,97.30
2018-05-16T04:12:37.825Z,97.30
2018-05-16T04:15:06.153Z,97.40
2018-05-16T04:17:33.773Z,97.40
2018-05-16T04:20:02.097Z,97.20
2018-05-16T04:22:29.613Z,97.20
2018-05-16T04:24:57.836Z,97.00
2018-05-16T04:27:25.364Z,97.00
2018-05-16T04:29:52.891Z,97.00
2018-05-16T04:32:21.240Z,96.50
2018-05-16T04:34:48.750Z,96.50
2018-05-16T04:37:16.251Z,96.20
2018-05-16T04:39:43.791Z,96.50
2018-05-16T04:42:11.299Z,96.50
2018-05-16T04:44:39.590Z,95.10
2018-05-16T04:47:07.143Z,95.00
2018-05-16T04:49:35.397Z,94.30
2018-05-16T04:52:02.982Z,94.30
2018-05-16T04:54:31.249Z,93.30
2018-05-16T04:56:59.521Z,92.70
2018-05-16T04:59:27.785Z,92.20
2018-05-16T05:01:55.299Z,92.20
2018-05-16T05:04:22.799Z,91.90
2018-05-16T05:06:51.082Z,90.70
2018-05-16T05:09:19.345Z,90.50
2018-05-16T05:11:46.912Z,90.50
2018-05-16T05:14:15.907Z,86.90
2018-05-16T05:16:44.211Z,86.20
2018-05-16T05:19:12.468Z,86.10
2018-05-16T05:21:40.732Z,85.50
2018-05-16T05:24:08.293Z,85.40
2018-05-16T05:26:35.835Z,85.10
2018-05-16T05:29:03.335Z,84.70
2018-05-16T05:31:30.884Z,83.80
2018-05-16T05:33:59.140Z,81.70
2018-05-16T05:36:26.676Z,81.70
2018-05-16T05:39:02.606Z,80.50
2018-05-16T05:41:30.134Z,79.20
2018-05-16T05:43:58.412Z,77.50
2018-05-16T05:46:25.961Z,77.30
2018-05-16T05:48:54.240Z,75.70
2018-05-16T05:51:22.502Z,75.90
2018-05-16T05:53:50.072Z,75.90
2018-05-16T05:56:18.433Z,77.30
2018-05-16T05:58:46.026Z,77.30
2018-05-16T06:01:13.538Z,77.30
2018-05-16T06:03:41.024Z,78.50
2018-05-16T06:06:09.338Z,76.70
2018-05-16T06:08:36.824Z,76.70
2018-05-16T06:11:04.326Z,75.40
2018-05-16T06:13:31.948Z,74.00
2018-05-16T06:15:59.536Z,75.20
2018-05-16T06:18:27.824Z,74.30
2018-05-16T06:20:56.074Z,72.80
2018-05-16T06:23:23.576Z,72.60
2018-05-16T06:25:51.100Z,72.00
2018-05-16T06:28:19.362Z,70.60
2018-05-16T06:30:46.907Z,70.60
2018-05-16T06:33:14.396Z,72.00
2018-05-16T06:35:42.664Z,68.30
2018-05-16T06:38:10.952Z,68.80
2018-05-16T06:40:38.464Z,68.70
2018-05-16T06:43:05.993Z,69.00
2018-05-16T06:45:33.582Z,68.40
2018-05-16T06:48:01.075Z,66.90
2018-05-16T06:50:29.352Z,66.60
2018-05-16T06:52:57.627Z,65.90
2018-05-16T06:55:26.329Z,65.20
2018-05-16T06:57:53.846Z,65.20
2018-05-16T07:00:21.441Z,66.00
2018-05-16T07:02:49.715Z,65.70
2018-05-16T07:05:17.220Z,65.60
2018-05-16T07:07:44.745Z,64.70
2018-05-16T07:10:12.252Z,64.60
2018-05-16T07:12:41.246Z,64.80
2018-05-16T07:15:10.045Z,64.80
2018-05-16T07:17:38.744Z,66.20
2018-05-16T07:20:07.317Z,64.40
2018-05-16T07:22:35.593Z,64.10
2018-05-16T07:25:03.871Z,63.80
2018-05-16T07:27:32.157Z,61.50
2018-05-16T07:30:00.425Z,61.60
2018-05-16T07:32:28.891Z,61.70
2018-05-16T07:34:56.362Z,61.70
2018-05-16T07:37:24.657Z,63.30
2018-05-16T07:39:52.193Z,63.20
2018-05-16T07:42:20.469Z,63.70
2018-05-16T07:44:49.025Z,63.20
2018-05-16T07:47:16.614Z,63.20
2018-05-16T07:49:44.883Z,59.80
2018-05-16T07:52:13.147Z,59.10
2018-05-16T07:54:41.451Z,59.10
2018-05-16T07:57:09.713Z,58.50
2018-05-16T07:59:37.974Z,58.90
2018-05-16T08:02:05.467Z,58.80
2018-05-16T08:04:33.005Z,57.80
2018-05-16T08:07:01.382Z,58.40
2018-05-16T08:09:29.861Z,58.50
2018-05-16T08:12:02.555Z,57.50
2018-05-16T08:14:30.953Z,58.80
2018-05-16T08:16:58.477Z,58.80
2018-05-16T08:19:26.793Z,60.30
2018-05-16T08:21:54.365Z,61.10
2018-05-16T08:24:22.565Z,59.60
2018-05-16T08:26:50.083Z,59.60
2018-05-16T08:29:17.881Z,60.50
2018-05-16T08:31:45.409Z,61.10
2018-05-16T08:34:12.942Z,61.20
2018-05-16T08:36:40.504Z,60.10
2018-05-16T08:39:09.022Z,59.80
2018-05-16T08:41:36.529Z,59.80
2018-05-16T08:44:04.787Z,58.80
2018-05-16T08:46:32.295Z,58.70
2018-05-16T08:49:00.022Z,59.70
2018-05-16T08:51:28.599Z,59.50
2018-05-16T08:53:57.011Z,59.60
2018-05-16T08:56:24.493Z,59.60
2018-05-16T08:58:52.031Z,59.70
2018-05-16T09:01:19.603Z,59.80
2018-05-16T09:03:47.030Z,58.90
2018-05-16T09:06:14.512Z,59.90
2018-05-16T09:08:42.026Z,60.30
2018-05-16T09:11:10.382Z,60.20
2018-05-16T09:13:37.877Z,60.20
2018-05-16T09:16:05.726Z,59.00
2018-05-16T09:18:34.018Z,58.10
2018-05-16T09:21:01.548Z,58.70
2018-05-16T09:23:29.821Z,55.80
2018-05-16T09:25:57.350Z,55.70
2018-05-16T09:28:24.957Z,56.60
2018-05-16T09:30:53.224Z,58.80
2018-05-16T09:33:21.941Z,57.80
2018-05-16T09:35:49.541Z,57.70
2018-05-16T09:38:17.033Z,55.90
2018-05-16T09:40:45.414Z,55.60
2018-05-16T09:43:12.897Z,55.50
2018-05-16T09:45:40.572Z,57.40
2018-05-16T09:48:08.122Z,59.20
2018-05-16T09:50:35.597Z,61.10
2018-05-16T09:53:03.089Z,61.70
2018-05-16T09:55:30.653Z,63.50
2018-05-16T09:57:58.951Z,63.90
2018-05-16T10:00:30.297Z,63.80
2018-05-16T10:02:58.561Z,62.50
2018-05-16T10:05:26.865Z,61.60
2018-05-16T10:07:54.396Z,61.60
2018-05-16T10:10:22.669Z,63.80
2018-05-16T10:12:50.957Z,63.30
2018-05-16T10:15:18.507Z,63.30
2018-05-16T10:17:47.507Z,65.90
2018-05-16T10:20:15.032Z,65.90
2018-05-16T10:22:42.522Z,66.70
2018-05-16T10:25:10.018Z,66.60
2018-05-16T10:27:37.556Z,67.60
2018-05-16T10:30:05.066Z,67.80
2018-05-16T10:32:32.634Z,67.40
2018-05-16T10:35:01.772Z,67.60
2018-05-16T10:37:29.302Z,67.50
2018-05-16T10:39:57.682Z,68.20
2018-05-16T10:42:26.070Z,68.80
2018-05-16T10:44:53.435Z,68.80
2018-05-16T10:47:20.964Z,68.30
2018-05-16T10:49:49.304Z,69.60
2018-05-16T10:52:16.891Z,69.50
2018-05-16T10:54:44.299Z,69.00
2018-05-16T10:57:11.841Z,69.70
2018-05-16T10:59:39.339Z,69.60
2018-05-16T11:02:06.940Z,68.90
2018-05-16T11:04:34.788Z,68.50
2018-05-16T11:07:03.097Z,68.40
2018-05-16T11:09:30.586Z,68.40
2018-05-16T11:11:58.100Z,68.60
2018-05-16T11:14:25.639Z,67.20
2018-05-16T11:16:53.928Z,67.00
2018-05-16T11:19:22.194Z,67.50
2018-05-16T11:21:50.484Z,66.00
2018-05-16T11:24:18.845Z,66.80
2018-05-16T11:26:47.121Z,65.90
2018-05-16T11:29:14.680Z,65.90
2018-05-16T11:31:43.403Z,66.10
2018-05-16T11:34:10.896Z,66.10
2018-05-16T11:36:39.565Z,64.50
2018-05-16T11:39:07.782Z,64.30
2018-05-16T11:41:36.056Z,63.80
2018-05-16T11:44:04.722Z,65.50
2018-05-16T11:46:32.251Z,65.50
2018-05-16T11:48:59.828Z,65.60
2018-05-16T11:51:27.375Z,65.90
2018-05-16T11:53:55.224Z,66.50
2018-05-16T11:56:22.891Z,66.30
2018-05-16T11:58:50.394Z,66.40
2018-05-16T12:01:18.761Z,65.20
2018-05-16T12:03:46.482Z,65.30
2018-05-16T12:06:14.079Z,65.00
2018-05-16T12:08:41.598Z,66.40
2018-05-16T12:11:09.144Z,66.40
2018-05-16T12:13:36.677Z,65.80
2018-05-16T12:16:05.108Z,65.30
2018-05-16T12:18:33.576Z,64.50
2018-05-16T12:21:01.079Z,64.10
2018-05-16T12:23:28.646Z,64.80
2018-05-16T12:25:56.982Z,65.80
2018-05-16T12:28:25.254Z,65.40
2018-05-16T12:30:54.292Z,64.70
2018-05-16T12:33:22.414Z,64.50
2018-05-16T12:35:49.982Z,64.70
2018-05-16T12:38:17.487Z,65.00
2018-05-16T12:40:44.978Z,66.30
2018-05-16T12:43:17.900Z,66.40
2018-05-16T12:45:45.453Z,67.40
2018-05-16T12:48:13.111Z,67.00
2018-05-16T12:50:40.836Z,66.90
2018-05-16T12:53:08.318Z,67.50
2018-05-16T12:55:36.248Z,67.30
2018-05-16T12:58:04.495Z,66.80
2018-05-16T13:00:32.030Z,66.60
2018-05-16T13:02:59.542Z,68.30
2018-05-16T13:05:27.196Z,68.70
2018-05-16T13:07:55.506Z,70.50
2018-05-16T13:10:23.004Z,70.50
2018-05-16T13:12:50.675Z,71.20
2018-05-16T13:15:19.052Z,73.00
2018-05-16T13:17:46.601Z,72.90
2018-05-16T13:20:14.126Z,73.50
2018-05-16T13:22:47.848Z,74.00
2018-05-16T13:25:15.468Z,73.70
2018-05-16T13:27:42.961Z,74.60
2018-05-16T13:30:11.199Z,74.30
2018-05-16T13:32:38.936Z,74.50
2018-05-16T13:35:07.199Z,75.50
2018-05-16T13:37:35.814Z,75.40
2018-05-16T13:40:04.163Z,76.30
2018-05-16T13:42:31.754Z,76.10
2018-05-16T13:45:00.169Z,76.20
2018-05-16T13:47:28.240Z,76.10
2018-05-16T13:49:55.846Z,76.40
2018-05-16T13:52:24.129Z,77.10
2018-05-16T13:54:52.472Z,77.90
2018-05-16T13:57:20.006Z,77.90
2018-05-16T13:59:47.687Z,79.30
2018-05-16T14:02:15.408Z,80.20
2018-05-16T14:04:42.944Z,81.10
2018-05-16T14:07:11.256Z,77.00
2018-05-16T14:09:38.801Z,77.00
2018-05-16T14:12:06.342Z,78.70
2018-05-16T14:14:34.626Z,79.20
2018-05-16T14:17:02.284Z,79.20
2018-05-16T14:19:30.552Z,79.20
2018-05-16T14:21:58.912Z,80.00
2018-05-16T14:24:27.290Z,79.20
2018-05-16T14:26:56.358Z,77.70
2018-05-16T14:29:24.269Z,77.60
2018-05-16T14:31:52.536Z,77.20
2018-05-16T14:34:20.854Z,77.00
2018-05-16T14:36:48.384Z,76.90
2018-05-16T14:39:16.762Z,77.30
2018-05-16T14:41:45.282Z,77.30
2018-05-16T14:44:12.772Z,75.00
2018-05-16T14:46:41.468Z,74.10
2018-05-16T14:49:09.035Z,74.00
2018-05-16T14:51:37.449Z,72.40
2018-05-16T14:54:05.116Z,72.30
2018-05-16T14:56:32.645Z,72.70
2018-05-16T14:59:00.932Z,73.00
2018-05-16T15:01:29.401Z,72.00
2018-05-16T15:03:57.745Z,71.30
2018-05-16T15:06:26.765Z,71.40
2018-05-16T15:08:55.045Z,70.80
2018-05-16T15:11:24.230Z,70.90
2018-05-16T15:13:54.262Z,70.80
2018-05-16T15:16:22.537Z,71.40
2018-05-16T15:18:50.795Z,71.80
2018-05-16T15:21:18.373Z,71.00
2018-05-16T15:23:45.986Z,70.40
2018-05-16T15:26:13.546Z,71.40
2018-05-16T15:28:41.078Z,71.40
2018-05-16T15:31:08.608Z,70.60
2018-05-16T15:33:37.036Z,70.60
2018-05-16T15:36:04.540Z,70.60
2018-05-16T15:38:33.066Z,72.00
2018-05-16T15:41:00.760Z,72.00
2018-05-16T15:43:28.328Z,72.20
2018-05-16T15:45:56.649Z,72.50
2018-05-16T15:48:24.338Z,72.50
2018-05-16T15:50:51.916Z,72.90
2018-05-16T15:53:20.970Z,72.70
2018-05-16T15:55:49.665Z,72.60
2018-05-16T15:58:18.759Z,73.90
2018-05-16T16:00:56.218Z,73.80
2018-05-16T16:03:24.636Z,76.10
2018-05-16T16:05:52.202Z,75.20
2018-05-16T16:08:20.292Z,73.90
2018-05-16T16:10:47.820Z,74.70
2018-05-16T16:13:16.348Z,75.40
2018-05-16T16:15:44.758Z,82.60
2018-05-16T16:18:12.292Z,82.60
2018-05-16T16:20:40.786Z,80.50
2018-05-16T16:23:08.328Z,80.40
2018-05-16T16:25:36.640Z,78.10
2018-05-16T16:28:04.197Z,78.00
2018-05-16T16:30:31.776Z,73.10
2018-05-16T16:32:59.321Z,76.70
2018-05-16T16:35:26.944Z,77.00
2018-05-16T16:37:54.793Z,79.00
2018-05-16T16:40:22.505Z,80.00
2018-05-16T16:42:50.106Z,83.30
2018-05-16T16:45:17.636Z,85.00
2018-05-16T16:47:45.210Z,86.00
2018-05-16T16:50:12.761Z,85.10
2018-05-16T16:52:40.374Z,86.00
2018-05-16T16:55:08.031Z,87.10
2018-05-16T16:57:36.860Z,90.50
2018-05-16T17:00:04.408Z,90.50
2018-05-16T17:02:32.128Z,91.40
2018-05-16T17:05:00.524Z,92.60
2018-05-16T17:07:28.722Z,92.50
2018-05-16T17:09:56.254Z,92.90
2018-05-16T17:12:23.860Z,93.20
2018-05-16T17:14:51.385Z,93.40
2018-05-16T17:17:19.338Z,93.80
2018-05-16T17:19:46.838Z,93.90
2018-05-16T17:22:14.375Z,94.00
2018-05-16T17:24:41.961Z,94.50
2018-05-16T17:27:09.509Z,95.00
2018-05-16T17:29:37.156Z,95.30
2018-05-16T17:32:04.682Z,94.80
2018-05-16T17:34:33.045Z,94.80
2018-05-16T17:37:00.559Z,94.80
2018-05-16T17:39:28.154Z,95.30
2018-05-16T17:41:55.725Z,94.90
2018-05-16T17:44:24.420Z,93.40
2018-05-16T17:46:52.704Z,93.60
2018-05-16T17:49:21.141Z,93.40
2018-05-16T17:51:48.843Z,93.30
2018-05-16T17:54:16.358Z,93.20
2018-05-16T17:56:43.955Z,93.80
2018-05-16T17:59:13.257Z,94.30
2018-05-16T18:01:41.546Z,94.60
2018-05-16T18:04:09.060Z,94.50
2018-05-16T18:06:36.726Z,94.00
2018-05-16T18:09:05.793Z,94.20
2018-05-16T18:11:33.292Z,93.90
2018-05-16T18:14:13.352Z,94.50
2018-05-16T18:16:52.757Z,94.50
2018-05-16T18:19:20.326Z,94.80
2018-05-16T18:21:47.850Z,96.10
2018-05-16T18:24:15.416Z,97.70
2018-05-16T18:26:42.930Z,98.30
2018-05-16T18:29:11.235Z,98.40
2018-05-16T18:31:38.861Z,98.30
2018-05-16T18:34:06.377Z,98.00
2018-05-16T18:36:33.915Z,98.00
2018-05-16T18:39:02.603Z,98.10
2018-05-16T18:41:30.153Z,97.90
2018-05-16T18:43:58.208Z,97.90
2018-05-16T18:46:25.749Z,97.70
2018-05-16T18:48:54.387Z,97.30
2018-05-16T18:51:21.947Z,97.20
2018-05-16T18:53:49.509Z,97.40
2018-05-16T18:56:17.033Z,97.30
2018-05-16T18:58:44.711Z,97.30
2018-05-16T19:01:12.965Z,97.70
2018-05-16T19:03:40.500Z,97.70
2018-05-16T19:06:08.809Z,97.50
2018-05-16T19:08:36.352Z,97.50
2018-05-16T19:11:03.971Z,97.60
2018-05-16T19:13:31.463Z,97.40
2018-05-16T19:15:59.913Z,97.50
2018-05-16T19:18:27.463Z,97.60
2018-05-16T19:20:55.016Z,97.80
2018-05-16T19:23:22.566Z,97.50
2018-05-16T19:25:50.236Z,97.60
2018-05-16T19:28:17.815Z,97.40
2018-05-16T19:30:46.090Z,97.90
2018-05-16T19:33:14.386Z,97.50
2018-05-16T19:35:42.657Z,97.50
2018-05-16T19:38:11.479Z,97.90
2018-05-16T19:40:39.170Z,97.90
2018-05-16T19:43:06.718Z,98.10
2018-05-16T19:45:34.334Z,98.00
2018-05-16T19:48:02.669Z,97.80
2018-05-16T19:50:31.761Z,97.80
2018-05-16T19:52:59.356Z,97.70
2018-05-16T19:55:26.893Z,97.50
2018-05-16T19:57:54.589Z,97.60
2018-05-16T20:00:23.165Z,97.40
2018-05-16T20:02:50.705Z,97.40
2018-05-16T20:05:19.462Z,97.30
2018-05-16T20:07:46.982Z,97.20
2018-05-16T20:10:14.528Z,97.20
2018-05-16T20:12:42.056Z,97.40
2018-05-16T20:15:09.622Z,97.20
2018-05-16T20:17:38.081Z,97.20
2018-05-16T20:20:05.584Z,97.20
2018-05-16T20:22:34.467Z,97.20
2018-05-16T20:25:02.875Z,97.30
2018-05-16T20:27:30.412Z,97.20
2018-05-16T20:29:57.943Z,97.00
2018-05-16T20:32:26.296Z,96.90
2018-05-16T20:34:53.813Z,96.80
2018-05-16T20:37:21.408Z,96.80
2018-05-16T20:39:48.951Z,96.90
2018-05-16T20:42:16.508Z,97.00
2018-05-16T20:44:55.667Z,97.10
2018-05-16T20:47:23.726Z,96.70
2018-05-16T20:49:51.335Z,96.90
2018-05-16T20:52:19.714Z,96.80
2018-05-16T20:54:48.870Z,96.90
2018-05-16T20:57:16.474Z,96.90
2018-05-16T20:59:44.008Z,97.00
2018-05-16T21:02:13.898Z,96.90
2018-05-16T21:04:41.589Z,97.00
2018-05-16T21:07:10.766Z,97.00
2018-05-16T21:09:38.249Z,97.00
2018-05-16T21:12:06.538Z,97.10
2018-05-16T21:14:34.047Z,97.00
2018-05-16T21:17:01.564Z,96.80
2018-05-16T21:19:29.119Z,96.90
2018-05-16T21:21:56.652Z,96.90
2018-05-16T21:24:24.952Z,96.80
2018-05-16T21:26:52.467Z,96.80
2018-05-16T21:29:19.972Z,97.10
2018-05-16T21:31:47.483Z,97.20
2018-05-16T21:34:15.115Z,97.20
2018-05-16T21:36:42.620Z,97.20
2018-05-16T21:39:10.920Z,97.20
2018-05-16T21:41:38.428Z,97.20
2018-05-16T21:44:05.952Z,97.00
2018-05-16T21:46:33.473Z,96.70
2018-05-16T21:49:01.741Z,96.20
2018-05-16T21:51:29.248Z,96.20
2018-05-16T21:53:56.785Z,95.90
2018-05-16T21:56:24.308Z,95.50
2018-05-16T21:58:51.801Z,95.00
2018-05-16T22:01:19.297Z,95.20
2018-05-16T22:03:46.803Z,94.90
2018-05-16T22:06:14.308Z,94.90
2018-05-16T22:08:41.805Z,94.50
2018-05-16T22:11:10.065Z,94.50
2018-05-16T22:13:37.602Z,94.40
2018-05-16T22:16:05.210Z,94.10
2018-05-16T22:18:33.513Z,94.00
2018-05-16T22:21:01.013Z,94.00
2018-05-16T22:23:28.565Z,94.10
2018-05-16T22:25:56.081Z,94.20
2018-05-16T22:28:23.599Z,94.30
2018-05-16T22:30:56.923Z,93.90
2018-05-16T22:33:30.238Z,94.70
2018-05-16T22:36:03.320Z,94.50
2018-05-16T22:38:36.573Z,94.80
2018-05-16T22:41:09.826Z,94.70
2018-05-16T22:43:42.351Z,94.70
2018-05-16T22:46:10.637Z,94.80
2018-05-16T22:48:38.134Z,94.80
2018-05-16T22:51:05.711Z,94.40
2018-05-16T22:53:33.209Z,94.20
2018-05-16T22:56:01.523Z,93.60
2018-05-16T22:58:29.030Z,93.60
2018-05-16T23:00:57.419Z,93.50
2018-05-16T23:03:25.799Z,93.30
2018-05-16T23:05:53.311Z,93.20
2018-05-16T23:08:20.847Z,93.20
2018-05-16T23:10:48.367Z,93.40
2018-05-16T23:13:16.636Z,93.30
2018-05-16T23:15:45.010Z,93.40
2018-05-16T23:18:12.567Z,93.40
2018-05-16T23:20:40.860Z,93.40
2018-05-16T23:23:08.378Z,93.40
2018-05-16T23:25:35.894Z,93.30
2018-05-16T23:28:03.444Z,93.40
2018-05-16T23:30:30.934Z,93.40
2018-05-16T23:32:58.452Z,93.50
2018-05-16T23:35:26.008Z,93.50
2018-05-16T23:37:54.280Z,93.50
2018-05-16T23:40:22.550Z,93.50
2018-05-16T23:42:50.842Z,93.40
2018-05-16T23:45:18.324Z,93.40
2018-05-16T23:47:45.828Z,93.70
2018-05-16T23:50:13.357Z,93.60
2018-05-16T23:52:40.832Z,93.80
2018-05-16T23:55:08.432Z,93.30
2018-05-16T23:57:36.700Z,93.30
